sensor_id;sensor_type;location;lat;lon;timestamp;P1;durP1;ratioP1;P2;durP2;ratioP2
11004;SDS011;5555;59.622;16.556;2023-08-08T00:00:10;6.83;;;1.83;;
11004;SDS011;5555;59.622;16.556;2023-08-08T00:02:36;4.20;;;1.70;;
11004;SDS011;5555;59.622;16.556;2023-08-08T00:05:02;3.70;;;1.97;;
11004;SDS011;5555;59.622;16.556;2023-08-08T00:07:28;3.60;;;1.30;;
11004;SDS011;5555;59.622;16.556;2023-08-08T00:09:55;2.10;;;1.40;;
11004;SDS011;5555;59.622;16.556;2023-08-08T00:12:21;2.70;;;1.50;;
11004;SDS011;5555;59.622;16.556;2023-08-08T00:14:47;2.00;;;1.40;;
11004;SDS011;5555;59.622;16.556;2023-08-08T00:17:13;2.50;;;1.50;;
11004;SDS011;5555;59.622;16.556;2023-08-08T00:19:39;1.93;;;1.20;;
11004;SDS011;5555;59.622;16.556;2023-08-08T00:22:05;1.87;;;1.40;;
11004;SDS011;5555;59.622;16.556;2023-08-08T00:24:32;4.70;;;1.40;;
11004;SDS011;5555;59.622;16.556;2023-08-08T00:26:58;1.20;;;1.10;;
11004;SDS011;5555;59.622;16.556;2023-08-08T00:29:24;2.17;;;1.60;;
11004;SDS011;5555;59.622;16.556;2023-08-08T00:31:49;3.73;;;1.70;;
11004;SDS011;5555;59.622;16.556;2023-08-08T00:34:15;2.83;;;1.50;;
11004;SDS011;5555;59.622;16.556;2023-08-08T00:36:40;3.73;;;1.27;;
11004;SDS011;5555;59.622;16.556;2023-08-08T00:39:06;2.20;;;1.60;;
11004;SDS011;5555;59.622;16.556;2023-08-08T00:41:32;3.10;;;1.50;;
11004;SDS011;5555;59.622;16.556;2023-08-08T00:43:58;2.87;;;1.47;;
11004;SDS011;5555;59.622;16.556;2023-08-08T00:46:24;3.40;;;1.50;;
11004;SDS011;5555;59.622;16.556;2023-08-08T00:48:50;4.00;;;1.30;;
11004;SDS011;5555;59.622;16.556;2023-08-08T00:51:17;3.37;;;1.30;;
11004;SDS011;5555;59.622;16.556;2023-08-08T00:53:44;1.53;;;1.20;;
11004;SDS011;5555;59.622;16.556;2023-08-08T00:56:11;4.33;;;1.63;;
11004;SDS011;5555;59.622;16.556;2023-08-08T00:58:39;2.90;;;1.30;;
11004;SDS011;5555;59.622;16.556;2023-08-08T01:01:05;3.03;;;1.40;;
11004;SDS011;5555;59.622;16.556;2023-08-08T01:03:31;3.97;;;1.20;;
11004;SDS011;5555;59.622;16.556;2023-08-08T01:06:41;3.33;;;1.60;;
11004;SDS011;5555;59.622;16.556;2023-08-08T01:08:47;2.40;;;1.20;;
11004;SDS011;5555;59.622;16.556;2023-08-08T01:11:17;2.47;;;1.10;;
11004;SDS011;5555;59.622;16.556;2023-08-08T01:13:43;3.07;;;1.00;;
11004;SDS011;5555;59.622;16.556;2023-08-08T01:16:11;4.87;;;1.30;;
11004;SDS011;5555;59.622;16.556;2023-08-08T01:18:38;2.50;;;1.33;;
11004;SDS011;5555;59.622;16.556;2023-08-08T01:21:05;2.93;;;1.20;;
11004;SDS011;5555;59.622;16.556;2023-08-08T01:23:34;2.47;;;1.20;;
11004;SDS011;5555;59.622;16.556;2023-08-08T01:26:21;4.67;;;1.50;;
11004;SDS011;5555;59.622;16.556;2023-08-08T01:28:48;4.17;;;1.23;;
11004;SDS011;5555;59.622;16.556;2023-08-08T01:31:17;3.23;;;1.13;;
11004;SDS011;5555;59.622;16.556;2023-08-08T01:33:42;2.97;;;1.33;;
11004;SDS011;5555;59.622;16.556;2023-08-08T01:36:18;2.93;;;1.10;;
11004;SDS011;5555;59.622;16.556;2023-08-08T01:38:51;1.50;;;1.03;;
11004;SDS011;5555;59.622;16.556;2023-08-08T01:41:17;3.37;;;1.20;;
11004;SDS011;5555;59.622;16.556;2023-08-08T01:43:44;2.03;;;1.10;;
11004;SDS011;5555;59.622;16.556;2023-08-08T01:46:10;2.13;;;1.20;;
11004;SDS011;5555;59.622;16.556;2023-08-08T01:48:36;5.57;;;1.40;;
11004;SDS011;5555;59.622;16.556;2023-08-08T01:51:02;2.70;;;1.20;;
11004;SDS011;5555;59.622;16.556;2023-08-08T01:53:28;4.13;;;1.20;;
11004;SDS011;5555;59.622;16.556;2023-08-08T01:55:53;2.67;;;0.87;;
11004;SDS011;5555;59.622;16.556;2023-08-08T01:58:19;3.57;;;1.37;;
11004;SDS011;5555;59.622;16.556;2023-08-08T02:00:45;3.23;;;1.00;;
11004;SDS011;5555;59.622;16.556;2023-08-08T02:03:11;2.97;;;0.80;;
11004;SDS011;5555;59.622;16.556;2023-08-08T02:05:37;2.70;;;1.00;;
11004;SDS011;5555;59.622;16.556;2023-08-08T02:08:03;6.70;;;1.67;;
11004;SDS011;5555;59.622;16.556;2023-08-08T02:10:29;2.80;;;1.20;;
11004;SDS011;5555;59.622;16.556;2023-08-08T02:12:55;4.93;;;1.40;;
11004;SDS011;5555;59.622;16.556;2023-08-08T02:15:20;2.03;;;1.03;;
11004;SDS011;5555;59.622;16.556;2023-08-08T02:17:46;3.50;;;1.07;;
11004;SDS011;5555;59.622;16.556;2023-08-08T02:20:12;2.90;;;0.90;;
11004;SDS011;5555;59.622;16.556;2023-08-08T02:22:38;2.80;;;1.17;;
11004;SDS011;5555;59.622;16.556;2023-08-08T02:25:03;3.07;;;1.20;;
11004;SDS011;5555;59.622;16.556;2023-08-08T02:27:29;2.90;;;0.93;;
11004;SDS011;5555;59.622;16.556;2023-08-08T02:29:55;1.73;;;1.07;;
11004;SDS011;5555;59.622;16.556;2023-08-08T02:32:22;2.70;;;1.20;;
11004;SDS011;5555;59.622;16.556;2023-08-08T02:34:48;4.90;;;1.30;;
11004;SDS011;5555;59.622;16.556;2023-08-08T02:37:14;3.53;;;1.20;;
11004;SDS011;5555;59.622;16.556;2023-08-08T02:39:42;4.63;;;1.47;;
11004;SDS011;5555;59.622;16.556;2023-08-08T02:42:08;3.63;;;1.47;;
11004;SDS011;5555;59.622;16.556;2023-08-08T02:44:35;2.80;;;1.60;;
11004;SDS011;5555;59.622;16.556;2023-08-08T02:47:00;3.10;;;1.30;;
11004;SDS011;5555;59.622;16.556;2023-08-08T02:49:27;4.63;;;1.47;;
11004;SDS011;5555;59.622;16.556;2023-08-08T02:51:53;3.73;;;1.33;;
11004;SDS011;5555;59.622;16.556;2023-08-08T02:54:19;4.30;;;1.27;;
11004;SDS011;5555;59.622;16.556;2023-08-08T02:56:45;4.87;;;1.47;;
11004;SDS011;5555;59.622;16.556;2023-08-08T02:59:10;1.90;;;1.20;;
11004;SDS011;5555;59.622;16.556;2023-08-08T03:01:37;4.07;;;1.17;;
11004;SDS011;5555;59.622;16.556;2023-08-08T03:04:04;6.57;;;1.23;;
11004;SDS011;5555;59.622;16.556;2023-08-08T03:06:30;2.57;;;1.43;;
11004;SDS011;5555;59.622;16.556;2023-08-08T03:08:56;4.97;;;1.37;;
11004;SDS011;5555;59.622;16.556;2023-08-08T03:11:22;4.10;;;1.00;;
11004;SDS011;5555;59.622;16.556;2023-08-08T03:13:49;4.20;;;1.60;;
11004;SDS011;5555;59.622;16.556;2023-08-08T03:16:15;3.80;;;1.30;;
11004;SDS011;5555;59.622;16.556;2023-08-08T03:18:40;3.03;;;1.40;;
11004;SDS011;5555;59.622;16.556;2023-08-08T03:21:06;6.30;;;1.63;;
11004;SDS011;5555;59.622;16.556;2023-08-08T03:23:32;3.27;;;1.40;;
11004;SDS011;5555;59.622;16.556;2023-08-08T03:25:57;4.43;;;1.40;;
11004;SDS011;5555;59.622;16.556;2023-08-08T03:28:23;2.90;;;1.23;;
11004;SDS011;5555;59.622;16.556;2023-08-08T03:30:49;2.87;;;1.30;;
11004;SDS011;5555;59.622;16.556;2023-08-08T03:33:15;2.67;;;1.10;;
11004;SDS011;5555;59.622;16.556;2023-08-08T03:35:40;3.17;;;1.30;;
11004;SDS011;5555;59.622;16.556;2023-08-08T03:38:06;3.40;;;1.10;;
11004;SDS011;5555;59.622;16.556;2023-08-08T03:40:32;3.90;;;1.20;;
11004;SDS011;5555;59.622;16.556;2023-08-08T03:42:58;3.23;;;1.10;;
11004;SDS011;5555;59.622;16.556;2023-08-08T03:45:23;7.73;;;1.40;;
11004;SDS011;5555;59.622;16.556;2023-08-08T03:47:49;4.23;;;1.20;;
11004;SDS011;5555;59.622;16.556;2023-08-08T03:50:15;4.70;;;1.57;;
11004;SDS011;5555;59.622;16.556;2023-08-08T03:52:40;2.87;;;1.20;;
11004;SDS011;5555;59.622;16.556;2023-08-08T03:55:06;4.17;;;1.40;;
11004;SDS011;5555;59.622;16.556;2023-08-08T03:57:32;5.50;;;1.47;;
11004;SDS011;5555;59.622;16.556;2023-08-08T03:59:57;5.93;;;1.20;;
11004;SDS011;5555;59.622;16.556;2023-08-08T04:02:24;5.93;;;1.50;;
11004;SDS011;5555;59.622;16.556;2023-08-08T04:04:49;2.97;;;1.47;;
11004;SDS011;5555;59.622;16.556;2023-08-08T04:07:15;7.00;;;1.80;;
11004;SDS011;5555;59.622;16.556;2023-08-08T04:09:41;2.37;;;1.50;;
11004;SDS011;5555;59.622;16.556;2023-08-08T04:12:07;5.20;;;2.33;;
11004;SDS011;5555;59.622;16.556;2023-08-08T04:14:33;4.67;;;1.80;;
11004;SDS011;5555;59.622;16.556;2023-08-08T04:16:58;3.30;;;2.13;;
11004;SDS011;5555;59.622;16.556;2023-08-08T04:19:24;4.83;;;1.87;;
11004;SDS011;5555;59.622;16.556;2023-08-08T04:21:50;4.03;;;2.27;;
11004;SDS011;5555;59.622;16.556;2023-08-08T04:24:16;5.13;;;2.10;;
11004;SDS011;5555;59.622;16.556;2023-08-08T04:26:41;3.40;;;1.90;;
11004;SDS011;5555;59.622;16.556;2023-08-08T04:29:07;3.87;;;2.17;;
11004;SDS011;5555;59.622;16.556;2023-08-08T04:31:32;5.27;;;2.07;;
11004;SDS011;5555;59.622;16.556;2023-08-08T04:33:58;5.17;;;2.10;;
11004;SDS011;5555;59.622;16.556;2023-08-08T04:36:26;3.77;;;2.10;;
11004;SDS011;5555;59.622;16.556;2023-08-08T04:38:52;7.60;;;2.70;;
11004;SDS011;5555;59.622;16.556;2023-08-08T04:41:18;6.50;;;2.63;;
11004;SDS011;5555;59.622;16.556;2023-08-08T04:43:43;5.47;;;2.50;;
11004;SDS011;5555;59.622;16.556;2023-08-08T04:46:09;5.23;;;2.50;;
11004;SDS011;5555;59.622;16.556;2023-08-08T04:48:35;4.60;;;2.33;;
11004;SDS011;5555;59.622;16.556;2023-08-08T04:51:02;5.93;;;2.87;;
11004;SDS011;5555;59.622;16.556;2023-08-08T04:53:31;4.00;;;2.57;;
11004;SDS011;5555;59.622;16.556;2023-08-08T04:55:56;5.23;;;2.77;;
11004;SDS011;5555;59.622;16.556;2023-08-08T04:58:22;5.97;;;3.10;;
11004;SDS011;5555;59.622;16.556;2023-08-08T05:00:48;3.77;;;2.73;;
11004;SDS011;5555;59.622;16.556;2023-08-08T05:03:15;4.27;;;2.43;;
11004;SDS011;5555;59.622;16.556;2023-08-08T05:05:41;4.87;;;2.70;;
11004;SDS011;5555;59.622;16.556;2023-08-08T05:08:09;4.73;;;2.40;;
11004;SDS011;5555;59.622;16.556;2023-08-08T05:10:36;6.83;;;2.40;;
11004;SDS011;5555;59.622;16.556;2023-08-08T05:13:01;6.67;;;2.40;;
11004;SDS011;5555;59.622;16.556;2023-08-08T05:15:27;3.37;;;2.00;;
11004;SDS011;5555;59.622;16.556;2023-08-08T05:17:52;3.03;;;1.87;;
11004;SDS011;5555;59.622;16.556;2023-08-08T05:20:20;2.03;;;1.60;;
11004;SDS011;5555;59.622;16.556;2023-08-08T05:22:46;2.93;;;2.10;;
11004;SDS011;5555;59.622;16.556;2023-08-08T05:25:12;3.87;;;2.30;;
11004;SDS011;5555;59.622;16.556;2023-08-08T05:27:37;2.43;;;2.20;;
11004;SDS011;5555;59.622;16.556;2023-08-08T05:30:03;4.93;;;2.50;;
11004;SDS011;5555;59.622;16.556;2023-08-08T05:32:29;5.97;;;2.60;;
11004;SDS011;5555;59.622;16.556;2023-08-08T05:34:56;3.93;;;2.50;;
11004;SDS011;5555;59.622;16.556;2023-08-08T05:37:22;2.73;;;1.73;;
11004;SDS011;5555;59.622;16.556;2023-08-08T05:39:48;4.40;;;2.10;;
11004;SDS011;5555;59.622;16.556;2023-08-08T05:42:14;2.50;;;2.27;;
11004;SDS011;5555;59.622;16.556;2023-08-08T05:44:40;3.57;;;1.80;;
11004;SDS011;5555;59.622;16.556;2023-08-08T05:47:09;3.63;;;1.80;;
11004;SDS011;5555;59.622;16.556;2023-08-08T05:49:36;3.30;;;2.00;;
11004;SDS011;5555;59.622;16.556;2023-08-08T05:52:03;1.60;;;1.40;;
11004;SDS011;5555;59.622;16.556;2023-08-08T05:54:29;2.03;;;1.30;;
11004;SDS011;5555;59.622;16.556;2023-08-08T05:56:54;3.93;;;1.50;;
11004;SDS011;5555;59.622;16.556;2023-08-08T05:59:20;1.90;;;1.10;;
11004;SDS011;5555;59.622;16.556;2023-08-08T06:01:46;2.80;;;1.13;;
11004;SDS011;5555;59.622;16.556;2023-08-08T06:04:12;3.27;;;1.20;;
11004;SDS011;5555;59.622;16.556;2023-08-08T06:06:38;2.90;;;1.20;;
11004;SDS011;5555;59.622;16.556;2023-08-08T06:09:04;1.80;;;1.20;;
11004;SDS011;5555;59.622;16.556;2023-08-08T06:11:30;2.37;;;1.13;;
11004;SDS011;5555;59.622;16.556;2023-08-08T06:13:55;1.30;;;1.20;;
11004;SDS011;5555;59.622;16.556;2023-08-08T06:16:21;2.70;;;0.90;;
11004;SDS011;5555;59.622;16.556;2023-08-08T06:18:47;3.57;;;1.00;;
11004;SDS011;5555;59.622;16.556;2023-08-08T06:21:13;1.13;;;0.80;;
11004;SDS011;5555;59.622;16.556;2023-08-08T06:23:38;1.80;;;0.90;;
11004;SDS011;5555;59.622;16.556;2023-08-08T06:26:04;0.87;;;0.87;;
11004;SDS011;5555;59.622;16.556;2023-08-08T06:28:30;1.47;;;0.80;;
11004;SDS011;5555;59.622;16.556;2023-08-08T06:30:59;1.63;;;0.60;;
11004;SDS011;5555;59.622;16.556;2023-08-08T06:33:24;0.93;;;0.53;;
11004;SDS011;5555;59.622;16.556;2023-08-08T06:35:50;1.60;;;0.70;;
11004;SDS011;5555;59.622;16.556;2023-08-08T06:38:16;0.83;;;0.57;;
11004;SDS011;5555;59.622;16.556;2023-08-08T06:40:41;0.50;;;0.30;;
11004;SDS011;5555;59.622;16.556;2023-08-08T06:43:07;0.40;;;0.40;;
11004;SDS011;5555;59.622;16.556;2023-08-08T06:45:33;0.77;;;0.40;;
11004;SDS011;5555;59.622;16.556;2023-08-08T06:47:58;1.13;;;0.50;;
11004;SDS011;5555;59.622;16.556;2023-08-08T06:50:24;0.50;;;0.30;;
11004;SDS011;5555;59.622;16.556;2023-08-08T06:52:50;1.30;;;0.40;;
11004;SDS011;5555;59.622;16.556;2023-08-08T06:55:15;0.80;;;0.40;;
11004;SDS011;5555;59.622;16.556;2023-08-08T06:57:41;0.83;;;0.47;;
11004;SDS011;5555;59.622;16.556;2023-08-08T07:00:07;0.87;;;0.50;;
11004;SDS011;5555;59.622;16.556;2023-08-08T07:02:33;1.13;;;0.60;;
11004;SDS011;5555;59.622;16.556;2023-08-08T07:04:59;0.93;;;0.30;;
11004;SDS011;5555;59.622;16.556;2023-08-08T07:07:25;2.30;;;0.50;;
11004;SDS011;5555;59.622;16.556;2023-08-08T07:09:51;2.10;;;0.60;;
11004;SDS011;5555;59.622;16.556;2023-08-08T07:12:16;1.23;;;0.40;;
11004;SDS011;5555;59.622;16.556;2023-08-08T07:14:42;2.27;;;0.30;;
11004;SDS011;5555;59.622;16.556;2023-08-08T07:17:08;1.57;;;0.40;;
11004;SDS011;5555;59.622;16.556;2023-08-08T07:19:34;0.20;;;0.20;;
11004;SDS011;5555;59.622;16.556;2023-08-08T07:22:01;0.70;;;0.37;;
11004;SDS011;5555;59.622;16.556;2023-08-08T07:24:27;1.83;;;0.37;;
11004;SDS011;5555;59.622;16.556;2023-08-08T07:26:54;1.10;;;0.50;;
11004;SDS011;5555;59.622;16.556;2023-08-08T07:29:20;0.90;;;0.30;;
11004;SDS011;5555;59.622;16.556;2023-08-08T07:31:46;1.80;;;0.30;;
11004;SDS011;5555;59.622;16.556;2023-08-08T07:34:12;1.37;;;0.40;;
11004;SDS011;5555;59.622;16.556;2023-08-08T07:36:37;1.07;;;0.50;;
11004;SDS011;5555;59.622;16.556;2023-08-08T07:39:03;1.07;;;0.40;;
11004;SDS011;5555;59.622;16.556;2023-08-08T07:41:29;0.37;;;0.20;;
11004;SDS011;5555;59.622;16.556;2023-08-08T07:43:55;0.40;;;0.20;;
11004;SDS011;5555;59.622;16.556;2023-08-08T07:46:21;0.40;;;0.20;;
11004;SDS011;5555;59.622;16.556;2023-08-08T07:48:47;1.60;;;0.30;;
11004;SDS011;5555;59.622;16.556;2023-08-08T07:51:13;0.53;;;0.37;;
11004;SDS011;5555;59.622;16.556;2023-08-08T07:53:38;0.60;;;0.23;;
11004;SDS011;5555;59.622;16.556;2023-08-08T07:56:04;0.43;;;0.20;;
11004;SDS011;5555;59.622;16.556;2023-08-08T07:58:31;0.43;;;0.20;;
11004;SDS011;5555;59.622;16.556;2023-08-08T08:00:57;0.30;;;0.10;;
11004;SDS011;5555;59.622;16.556;2023-08-08T08:03:24;1.33;;;0.40;;
11004;SDS011;5555;59.622;16.556;2023-08-08T08:05:51;0.30;;;0.13;;
11004;SDS011;5555;59.622;16.556;2023-08-08T08:08:16;0.20;;;0.10;;
11004;SDS011;5555;59.622;16.556;2023-08-08T08:10:42;0.30;;;0.20;;
11004;SDS011;5555;59.622;16.556;2023-08-08T08:13:08;0.40;;;0.20;;
11004;SDS011;5555;59.622;16.556;2023-08-08T08:15:35;0.40;;;0.17;;
11004;SDS011;5555;59.622;16.556;2023-08-08T08:18:01;0.90;;;0.20;;
11004;SDS011;5555;59.622;16.556;2023-08-08T08:20:26;0.30;;;0.20;;
11004;SDS011;5555;59.622;16.556;2023-08-08T08:22:52;1.03;;;0.30;;
11004;SDS011;5555;59.622;16.556;2023-08-08T08:25:18;0.63;;;0.30;;
11004;SDS011;5555;59.622;16.556;2023-08-08T08:27:43;0.30;;;0.30;;
11004;SDS011;5555;59.622;16.556;2023-08-08T08:30:09;0.20;;;0.20;;
11004;SDS011;5555;59.622;16.556;2023-08-08T08:32:36;1.17;;;0.40;;
11004;SDS011;5555;59.622;16.556;2023-08-08T08:35:02;0.57;;;0.40;;
11004;SDS011;5555;59.622;16.556;2023-08-08T08:37:29;0.63;;;0.40;;
11004;SDS011;5555;59.622;16.556;2023-08-08T08:39:55;0.60;;;0.30;;
11004;SDS011;5555;59.622;16.556;2023-08-08T08:42:20;0.80;;;0.50;;
11004;SDS011;5555;59.622;16.556;2023-08-08T08:44:47;0.50;;;0.30;;
11004;SDS011;5555;59.622;16.556;2023-08-08T08:47:14;2.37;;;0.70;;
11004;SDS011;5555;59.622;16.556;2023-08-08T08:49:44;0.60;;;0.40;;
11004;SDS011;5555;59.622;16.556;2023-08-08T08:52:11;1.03;;;0.40;;
11004;SDS011;5555;59.622;16.556;2023-08-08T08:54:37;1.90;;;0.40;;
11004;SDS011;5555;59.622;16.556;2023-08-08T08:57:03;0.73;;;0.40;;
11004;SDS011;5555;59.622;16.556;2023-08-08T08:59:28;0.57;;;0.40;;
11004;SDS011;5555;59.622;16.556;2023-08-08T09:01:54;1.00;;;0.40;;
11004;SDS011;5555;59.622;16.556;2023-08-08T09:04:21;3.47;;;0.60;;
11004;SDS011;5555;59.622;16.556;2023-08-08T09:06:48;0.90;;;0.40;;
11004;SDS011;5555;59.622;16.556;2023-08-08T09:09:15;2.50;;;0.70;;
11004;SDS011;5555;59.622;16.556;2023-08-08T09:11:43;0.70;;;0.53;;
11004;SDS011;5555;59.622;16.556;2023-08-08T09:14:20;0.63;;;0.50;;
11004;SDS011;5555;59.622;16.556;2023-08-08T09:16:47;0.93;;;0.50;;
11004;SDS011;5555;59.622;16.556;2023-08-08T09:19:14;0.70;;;0.70;;
11004;SDS011;5555;59.622;16.556;2023-08-08T09:21:41;0.67;;;0.60;;
11004;SDS011;5555;59.622;16.556;2023-08-08T09:24:06;0.57;;;0.40;;
11004;SDS011;5555;59.622;16.556;2023-08-08T09:26:32;0.77;;;0.40;;
11004;SDS011;5555;59.622;16.556;2023-08-08T09:28:59;0.57;;;0.40;;
11004;SDS011;5555;59.622;16.556;2023-08-08T09:31:25;2.00;;;0.47;;
11004;SDS011;5555;59.622;16.556;2023-08-08T09:33:53;1.67;;;0.50;;
11004;SDS011;5555;59.622;16.556;2023-08-08T09:36:19;2.53;;;0.53;;
11004;SDS011;5555;59.622;16.556;2023-08-08T09:38:47;2.37;;;0.60;;
11004;SDS011;5555;59.622;16.556;2023-08-08T09:41:13;1.17;;;0.50;;
11004;SDS011;5555;59.622;16.556;2023-08-08T09:43:39;3.33;;;0.63;;
11004;SDS011;5555;59.622;16.556;2023-08-08T09:46:04;1.67;;;0.60;;
11004;SDS011;5555;59.622;16.556;2023-08-08T09:48:30;0.60;;;0.57;;
11004;SDS011;5555;59.622;16.556;2023-08-08T09:50:58;1.93;;;0.70;;
11004;SDS011;5555;59.622;16.556;2023-08-08T09:53:25;0.93;;;0.50;;
11004;SDS011;5555;59.622;16.556;2023-08-08T09:55:53;0.83;;;0.60;;
11004;SDS011;5555;59.622;16.556;2023-08-08T09:58:20;2.13;;;0.60;;
11004;SDS011;5555;59.622;16.556;2023-08-08T10:00:48;1.23;;;0.53;;
11004;SDS011;5555;59.622;16.556;2023-08-08T10:03:16;0.90;;;0.60;;
11004;SDS011;5555;59.622;16.556;2023-08-08T10:05:43;0.87;;;0.67;;
11004;SDS011;5555;59.622;16.556;2023-08-08T10:08:09;1.33;;;0.50;;
11004;SDS011;5555;59.622;16.556;2023-08-08T10:10:35;0.77;;;0.50;;
11004;SDS011;5555;59.622;16.556;2023-08-08T10:13:02;0.70;;;0.30;;
11004;SDS011;5555;59.622;16.556;2023-08-08T10:15:29;2.13;;;0.77;;
11004;SDS011;5555;59.622;16.556;2023-08-08T10:17:58;0.27;;;0.27;;
11004;SDS011;5555;59.622;16.556;2023-08-08T10:20:25;0.40;;;0.40;;
11004;SDS011;5555;59.622;16.556;2023-08-08T10:22:52;0.50;;;0.30;;
11004;SDS011;5555;59.622;16.556;2023-08-08T10:27:49;0.87;;;0.27;;
11004;SDS011;5555;59.622;16.556;2023-08-08T10:30:15;0.77;;;0.27;;
11004;SDS011;5555;59.622;16.556;2023-08-08T10:32:41;0.73;;;0.30;;
11004;SDS011;5555;59.622;16.556;2023-08-08T10:35:08;0.50;;;0.30;;
11004;SDS011;5555;59.622;16.556;2023-08-08T10:37:37;0.60;;;0.20;;
11004;SDS011;5555;59.622;16.556;2023-08-08T10:40:03;0.70;;;0.20;;
11004;SDS011;5555;59.622;16.556;2023-08-08T10:42:31;0.57;;;0.27;;
11004;SDS011;5555;59.622;16.556;2023-08-08T10:44:57;0.80;;;0.40;;
11004;SDS011;5555;59.622;16.556;2023-08-08T10:47:24;0.87;;;0.43;;
11004;SDS011;5555;59.622;16.556;2023-08-08T10:50:08;0.10;;;0.10;;
11004;SDS011;5555;59.622;16.556;2023-08-08T10:52:38;0.53;;;0.10;;
11004;SDS011;5555;59.622;16.556;2023-08-08T10:55:20;0.20;;;0.10;;
11004;SDS011;5555;59.622;16.556;2023-08-08T10:57:57;0.30;;;0.27;;
11004;SDS011;5555;59.622;16.556;2023-08-08T11:00:31;0.20;;;0.20;;
11004;SDS011;5555;59.622;16.556;2023-08-08T11:02:59;0.10;;;0.10;;
11004;SDS011;5555;59.622;16.556;2023-08-08T11:05:27;0.30;;;0.30;;
11004;SDS011;5555;59.622;16.556;2023-08-08T11:07:54;0.60;;;0.30;;
11004;SDS011;5555;59.622;16.556;2023-08-08T11:10:20;2.23;;;0.50;;
11004;SDS011;5555;59.622;16.556;2023-08-08T11:12:57;0.93;;;0.50;;
11004;SDS011;5555;59.622;16.556;2023-08-08T11:15:24;0.57;;;0.57;;
11004;SDS011;5555;59.622;16.556;2023-08-08T11:17:54;0.63;;;0.60;;
11004;SDS011;5555;59.622;16.556;2023-08-08T11:20:21;0.87;;;0.87;;
11004;SDS011;5555;59.622;16.556;2023-08-08T11:22:54;1.53;;;0.97;;
11004;SDS011;5555;59.622;16.556;2023-08-08T11:25:21;0.80;;;0.80;;
11004;SDS011;5555;59.622;16.556;2023-08-08T11:27:53;0.90;;;0.80;;
11004;SDS011;5555;59.622;16.556;2023-08-08T11:30:20;0.77;;;0.77;;
11004;SDS011;5555;59.622;16.556;2023-08-08T11:32:47;0.60;;;0.60;;
11004;SDS011;5555;59.622;16.556;2023-08-08T11:35:21;2.07;;;1.07;;
11004;SDS011;5555;59.622;16.556;2023-08-08T11:37:48;1.97;;;0.97;;
11004;SDS011;5555;59.622;16.556;2023-08-08T11:40:18;1.60;;;0.90;;
11004;SDS011;5555;59.622;16.556;2023-08-08T11:42:45;0.70;;;0.70;;
11004;SDS011;5555;59.622;16.556;2023-08-08T11:45:12;0.87;;;0.80;;
11004;SDS011;5555;59.622;16.556;2023-08-08T11:47:39;0.70;;;0.70;;
11004;SDS011;5555;59.622;16.556;2023-08-08T11:50:05;0.50;;;0.50;;
11004;SDS011;5555;59.622;16.556;2023-08-08T11:52:34;1.33;;;0.80;;
11004;SDS011;5555;59.622;16.556;2023-08-08T11:55:00;1.57;;;0.60;;
11004;SDS011;5555;59.622;16.556;2023-08-08T11:57:26;0.70;;;0.60;;
11004;SDS011;5555;59.622;16.556;2023-08-08T11:59:53;0.60;;;0.40;;
11004;SDS011;5555;59.622;16.556;2023-08-08T12:02:19;0.80;;;0.43;;
11004;SDS011;5555;59.622;16.556;2023-08-08T12:04:45;0.60;;;0.40;;
11004;SDS011;5555;59.622;16.556;2023-08-08T12:07:11;2.17;;;0.60;;
11004;SDS011;5555;59.622;16.556;2023-08-08T12:09:37;0.73;;;0.50;;
11004;SDS011;5555;59.622;16.556;2023-08-08T12:12:03;0.60;;;0.60;;
11004;SDS011;5555;59.622;16.556;2023-08-08T12:14:30;1.13;;;0.77;;
11004;SDS011;5555;59.622;16.556;2023-08-08T12:17:01;0.40;;;0.40;;
11004;SDS011;5555;59.622;16.556;2023-08-08T12:19:27;1.17;;;0.50;;
11004;SDS011;5555;59.622;16.556;2023-08-08T12:21:53;1.20;;;0.47;;
11004;SDS011;5555;59.622;16.556;2023-08-08T12:24:19;1.47;;;0.50;;
11004;SDS011;5555;59.622;16.556;2023-08-08T12:26:45;1.30;;;0.50;;
11004;SDS011;5555;59.622;16.556;2023-08-08T12:29:12;1.47;;;0.47;;
11004;SDS011;5555;59.622;16.556;2023-08-08T12:31:38;2.03;;;0.80;;
11004;SDS011;5555;59.622;16.556;2023-08-08T12:34:04;0.40;;;0.40;;
11004;SDS011;5555;59.622;16.556;2023-08-08T12:36:30;0.77;;;0.40;;
11004;SDS011;5555;59.622;16.556;2023-08-08T12:38:55;2.07;;;0.57;;
11004;SDS011;5555;59.622;16.556;2023-08-08T12:41:22;0.80;;;0.50;;
11004;SDS011;5555;59.622;16.556;2023-08-08T12:43:49;0.67;;;0.50;;
11004;SDS011;5555;59.622;16.556;2023-08-08T12:46:15;0.87;;;0.40;;
11004;SDS011;5555;59.622;16.556;2023-08-08T12:48:41;0.70;;;0.53;;
11004;SDS011;5555;59.622;16.556;2023-08-08T12:51:08;1.00;;;0.50;;
11004;SDS011;5555;59.622;16.556;2023-08-08T12:53:34;1.90;;;0.70;;
11004;SDS011;5555;59.622;16.556;2023-08-08T12:55:59;0.60;;;0.60;;
11004;SDS011;5555;59.622;16.556;2023-08-08T12:58:25;1.10;;;0.80;;
11004;SDS011;5555;59.622;16.556;2023-08-08T13:00:51;0.60;;;0.60;;
11004;SDS011;5555;59.622;16.556;2023-08-08T13:03:16;1.07;;;0.90;;
11004;SDS011;5555;59.622;16.556;2023-08-08T13:05:42;2.13;;;0.70;;
11004;SDS011;5555;59.622;16.556;2023-08-08T13:08:08;1.10;;;0.80;;
11004;SDS011;5555;59.622;16.556;2023-08-08T13:10:34;0.70;;;0.60;;
11004;SDS011;5555;59.622;16.556;2023-08-08T13:13:00;1.27;;;0.53;;
11004;SDS011;5555;59.622;16.556;2023-08-08T13:15:26;2.67;;;0.70;;
11004;SDS011;5555;59.622;16.556;2023-08-08T13:17:51;1.00;;;0.50;;
11004;SDS011;5555;59.622;16.556;2023-08-08T13:20:17;0.60;;;0.40;;
11004;SDS011;5555;59.622;16.556;2023-08-08T13:22:43;0.90;;;0.50;;
11004;SDS011;5555;59.622;16.556;2023-08-08T13:25:09;1.50;;;0.60;;
11004;SDS011;5555;59.622;16.556;2023-08-08T13:27:35;0.63;;;0.47;;
11004;SDS011;5555;59.622;16.556;2023-08-08T13:30:01;1.17;;;0.73;;
11004;SDS011;5555;59.622;16.556;2023-08-08T13:32:27;1.73;;;0.60;;
11004;SDS011;5555;59.622;16.556;2023-08-08T13:34:53;0.60;;;0.47;;
11004;SDS011;5555;59.622;16.556;2023-08-08T13:37:20;0.60;;;0.60;;
11004;SDS011;5555;59.622;16.556;2023-08-08T13:39:45;0.60;;;0.50;;
11004;SDS011;5555;59.622;16.556;2023-08-08T13:42:11;0.60;;;0.50;;
11004;SDS011;5555;59.622;16.556;2023-08-08T13:44:37;0.37;;;0.33;;
11004;SDS011;5555;59.622;16.556;2023-08-08T13:47:02;0.90;;;0.43;;
11004;SDS011;5555;59.622;16.556;2023-08-08T13:49:28;1.97;;;0.60;;
11004;SDS011;5555;59.622;16.556;2023-08-08T13:51:54;1.07;;;0.40;;
11004;SDS011;5555;59.622;16.556;2023-08-08T13:54:19;0.50;;;0.40;;
11004;SDS011;5555;59.622;16.556;2023-08-08T13:56:45;0.70;;;0.40;;
11004;SDS011;5555;59.622;16.556;2023-08-08T13:59:11;1.60;;;0.60;;
11004;SDS011;5555;59.622;16.556;2023-08-08T14:01:37;2.60;;;0.60;;
11004;SDS011;5555;59.622;16.556;2023-08-08T14:04:03;0.50;;;0.50;;
11004;SDS011;5555;59.622;16.556;2023-08-08T14:06:29;1.90;;;0.40;;
11004;SDS011;5555;59.622;16.556;2023-08-08T14:08:55;1.00;;;0.60;;
11004;SDS011;5555;59.622;16.556;2023-08-08T14:11:21;1.63;;;0.60;;
11004;SDS011;5555;59.622;16.556;2023-08-08T14:13:47;1.47;;;0.70;;
11004;SDS011;5555;59.622;16.556;2023-08-08T14:16:12;0.97;;;0.67;;
11004;SDS011;5555;59.622;16.556;2023-08-08T14:18:38;0.93;;;0.53;;
11004;SDS011;5555;59.622;16.556;2023-08-08T14:21:04;1.63;;;0.70;;
11004;SDS011;5555;59.622;16.556;2023-08-08T14:23:30;1.93;;;0.80;;
11004;SDS011;5555;59.622;16.556;2023-08-08T14:25:56;2.90;;;0.90;;
11004;SDS011;5555;59.622;16.556;2023-08-08T14:28:22;3.00;;;0.70;;
11004;SDS011;5555;59.622;16.556;2023-08-08T14:30:48;1.23;;;0.40;;
11004;SDS011;5555;59.622;16.556;2023-08-08T14:33:15;1.00;;;0.50;;
11004;SDS011;5555;59.622;16.556;2023-08-08T14:35:41;1.07;;;0.40;;
11004;SDS011;5555;59.622;16.556;2023-08-08T14:38:08;1.50;;;0.40;;
11004;SDS011;5555;59.622;16.556;2023-08-08T14:40:34;0.60;;;0.50;;
11004;SDS011;5555;59.622;16.556;2023-08-08T14:43:00;0.87;;;0.47;;
11004;SDS011;5555;59.622;16.556;2023-08-08T14:45:26;3.43;;;0.73;;